Townsend, TX

8:18 AM CST on December 03, 2016 (GMT -0600)
Sam Rayburn Reservoir - Etoile, Texas | | Change Station

Elev 202 ft 31.33 °N, 94.34 °W | Updated 3 minutes ago

Heavy Thunderstorms and Rain
Heavy Thunderstorm Rain Mist
47.4 °F
Feels Like 47 °F
N
0.0
Wind Variable Wind from SSE
Gusts 0.0 mph

Today
High -- | Low -- °F
--% Chance of Precip.
Yesterday
High -- | Low -- °F
Precip. -- in
Pressure 30.00 in
Visibility 2.5 miles
Clouds Mostly Cloudy 800 ft
Overcast 1400 ft
Windchill 47 °F
Dew Point 46 °F
Humidity 95%
Rainfall 0.00 in
Snow Depth Not available.
7:00 AM 5:14 PM
Waxing Crescent, 15% visible
SPECI KLFK 031408Z AUTO 04011G19KT 010V080 2 1/2SM +TSRA BR BKN008 OVC014 08/08 A3000 RMK AO2 LTG DSNT W AND NW TSB05 P0015 T00830078
Pressure 30.00 in
Visibility 2.5 miles
Clouds Mostly Cloudy 800 ft
Overcast 1400 ft
Windchill 47 °F
Dew Point 46 °F
Humidity 95%
Rainfall 0.00 in
Snow Depth Not available.
7:00 AM 5:14 PM
Waxing Crescent, 15% visible
SPECI KLFK 031408Z AUTO 04011G19KT 010V080 2 1/2SM +TSRA BR BKN008 OVC014 08/08 A3000 RMK AO2 LTG DSNT W AND NW TSB05 P0015 T00830078

10-Day Weather Forecast

Almanac

Astronomy

Dec. 03, 2016 Rise Set
Actual Time
Civil Twilight
Nautical Twilight
Astronomical Twilight
Moon
Length of Visible Light
Length of Day
Tomorrow will be .
, % of the Moon is Illuminated

Today's Extremes

State Highs State Lows

Community

WunderPhotos

Upload Photos

1,955,446 photos uploaded!

WunderBlog® & News

Nearby

Air Quality

  Air Quality AQ Index Pollutant
Not available.

Snow Depth

Station Depth Elevation

Earthquake Activity

City Distance Mag. Time & Date
Minimum magnitude displayed is 2.5.

Coastal Water Temperatures

Place Temperature

Stations

Nearby Weather Stations

Station Location Temp. Windchill Dew Point Humidity Wind Precip. Elev Updated Type
                   

Watches & Warnings

There are currently no watches in effect.